Airport View

Enter AWOS ICAO identifier for current METAR.

ex. KFNL

KCPT 210110Z AUTO 14014KT 10SM CLR 30/21 A2995 RMK AO2

21 Sep 2019 01:16

Frequency: 119.525

Phone: 817-641-4135

Other Area AWOS: KFWS - KGDJ - KINJ - KNFW

TAF KNFW 2023/2123 17018G25KT 9999 FEW070 BKN100 BKN300 QNH2986INS BECMG 2103/2104 17016G24KT 9999 SCT020 SCT070 540004 QNH2990INS BECMG 2106/2107 17015G20KT 9999 BKN020 BKN070 540004 QNH2992INS BECMG 2107/2108 17015G20KT 9999 OVC020 540004 QNH2992INS BECMG 2116/2117 17016G25KT 9999 BKN020 BKN040 BKN100 500000 QNH2995INS BECMG 2117/2118 17016G25KT 9999 SCT020 BKN040 BKN100 QNH2987INS AUTOMATED SENSOR METWATCH 2104 TIL 2111 T25/2112Z T32/2121Z FN20070